createdAt,value
2018-05-08T00:02:16.083Z,74.00
2018-05-08T00:04:43.734Z,74.00
2018-05-08T00:07:11.371Z,73.90
2018-05-08T00:09:39.793Z,73.70
2018-05-08T00:12:07.442Z,73.70
2018-05-08T00:14:35.104Z,74.20
2018-05-08T00:17:02.752Z,74.00
2018-05-08T00:19:30.491Z,73.80
2018-05-08T00:21:58.153Z,74.30
2018-05-08T00:24:26.540Z,75.10
2018-05-08T00:26:54.949Z,75.30
2018-05-08T00:29:22.650Z,75.30
2018-05-08T00:31:50.302Z,75.40
2018-05-08T00:34:17.918Z,75.30
2018-05-08T00:36:45.583Z,75.40
2018-05-08T00:39:13.221Z,75.60
2018-05-08T00:41:41.637Z,76.30
2018-05-08T00:44:09.277Z,76.10
2018-05-08T00:46:37.650Z,76.30
2018-05-08T00:49:06.074Z,76.40
2018-05-08T00:51:33.682Z,76.30
2018-05-08T00:54:02.104Z,77.00
2018-05-08T00:56:29.708Z,77.00
2018-05-08T00:58:57.347Z,77.40
2018-05-08T01:01:25.003Z,77.40
2018-05-08T01:03:52.657Z,76.90
2018-05-08T01:06:20.266Z,76.80
2018-05-08T01:08:48.681Z,76.40
2018-05-08T01:11:16.320Z,76.40
2018-05-08T01:13:44.692Z,76.40
2018-05-08T01:16:13.137Z,76.60
2018-05-08T01:18:40.754Z,76.50
2018-05-08T01:21:08.401Z,75.90
2018-05-08T01:23:36.810Z,76.00
2018-05-08T01:26:04.461Z,76.00
2018-05-08T01:28:32.090Z,76.60
2018-05-08T01:31:00.462Z,76.90
2018-05-08T01:33:28.105Z,76.80
2018-05-08T01:35:55.739Z,76.60
2018-05-08T01:38:23.425Z,76.40
2018-05-08T01:40:51.085Z,76.10
2018-05-08T01:43:18.696Z,76.00
2018-05-08T01:45:46.359Z,76.40
2018-05-08T01:48:14.093Z,76.10
2018-05-08T01:50:41.695Z,76.10
2018-05-08T01:53:09.313Z,76.00
2018-05-08T01:55:36.959Z,75.70
2018-05-08T01:58:04.565Z,75.10
2018-05-08T02:00:32.223Z,75.40
2018-05-08T02:02:59.861Z,75.20
2018-05-08T02:05:27.466Z,75.10
2018-05-08T02:07:55.137Z,75.40
2018-05-08T02:10:22.731Z,75.20
2018-05-08T02:12:50.337Z,75.10
2018-05-08T02:15:17.976Z,75.00
2018-05-08T02:17:46.345Z,75.50
2018-05-08T02:20:13.993Z,75.50
2018-05-08T02:22:41.601Z,75.70
2018-05-08T02:25:09.210Z,75.60
2018-05-08T02:27:36.862Z,75.50
2018-05-08T02:30:04.457Z,74.80
2018-05-08T02:32:32.873Z,75.10
2018-05-08T02:35:00.522Z,75.10
2018-05-08T02:37:28.153Z,75.30
2018-05-08T02:39:55.798Z,75.90
2018-05-08T02:42:23.410Z,76.70
2018-05-08T02:44:51.057Z,76.90
2018-05-08T02:47:18.690Z,77.00
2018-05-08T02:49:46.333Z,76.10
2018-05-08T02:52:13.941Z,75.90
2018-05-08T02:54:41.585Z,75.40
2018-05-08T02:57:09.990Z,74.80
2018-05-08T02:59:37.584Z,74.80
2018-05-08T03:02:05.226Z,75.20
2018-05-08T03:04:32.827Z,75.70
2018-05-08T03:07:00.473Z,76.60
2018-05-08T03:09:28.083Z,77.10
2018-05-08T03:11:55.686Z,77.60
2018-05-08T03:14:24.098Z,76.50
2018-05-08T03:16:51.696Z,76.50
2018-05-08T03:19:19.325Z,76.50
2018-05-08T03:21:46.964Z,76.10
2018-05-08T03:24:14.600Z,76.00
2018-05-08T03:26:42.246Z,76.00
2018-05-08T03:29:09.854Z,76.10
2018-05-08T03:31:37.463Z,76.20
2018-05-08T03:34:05.153Z,76.30
2018-05-08T03:36:32.749Z,76.50
2018-05-08T03:39:00.392Z,76.90
2018-05-08T03:41:27.994Z,76.90
2018-05-08T03:43:55.658Z,77.00
2018-05-08T03:46:23.264Z,77.40
2018-05-08T03:48:50.907Z,77.80
2018-05-08T03:51:18.555Z,77.90
2018-05-08T03:53:46.158Z,78.20
2018-05-08T03:56:13.798Z,77.70
2018-05-08T03:58:41.437Z,77.80
2018-05-08T04:01:20.856Z,77.90
2018-05-08T04:04:02.334Z,77.90
2018-05-08T04:09:32.013Z,77.90
2018-05-08T04:11:59.612Z,78.10
2018-05-08T04:14:28.023Z,78.50
2018-05-08T04:16:55.662Z,78.20
2018-05-08T04:19:24.029Z,78.80
2018-05-08T04:21:52.465Z,78.00
2018-05-08T04:24:20.111Z,78.00
2018-05-08T04:26:47.720Z,77.90
2018-05-08T04:29:15.393Z,78.00
2018-05-08T04:31:43.989Z,78.00
2018-05-08T04:34:12.356Z,77.70
2018-05-08T04:36:40.003Z,77.70
2018-05-08T04:39:08.389Z,77.50
2018-05-08T04:41:36.028Z,77.40
2018-05-08T04:44:03.638Z,77.90
2018-05-08T04:46:32.242Z,76.70
2018-05-08T04:48:59.873Z,76.60
2018-05-08T04:51:28.298Z,76.10
2018-05-08T04:53:55.902Z,76.10
2018-05-08T04:56:23.549Z,75.80
2018-05-08T04:58:51.192Z,76.90
2018-05-08T05:01:18.795Z,76.60
2018-05-08T05:03:47.214Z,77.30
2018-05-08T05:06:14.811Z,77.20
2018-05-08T05:08:42.490Z,77.30
2018-05-08T05:11:10.947Z,76.40
2018-05-08T05:13:38.529Z,76.40
2018-05-08T05:16:06.950Z,75.60
2018-05-08T05:18:34.549Z,75.60
2018-05-08T05:21:02.222Z,75.20
2018-05-08T05:23:29.874Z,75.00
2018-05-08T05:25:57.522Z,74.70
2018-05-08T05:28:25.185Z,74.60
2018-05-08T05:30:52.794Z,74.70
2018-05-08T05:33:20.406Z,73.80
2018-05-08T05:35:48.059Z,73.10
2018-05-08T05:38:15.726Z,72.00
2018-05-08T05:40:43.340Z,71.90
2018-05-08T05:43:10.951Z,71.90
2018-05-08T05:45:38.654Z,72.50
2018-05-08T05:48:07.042Z,70.40
2018-05-08T05:50:34.737Z,70.40
2018-05-08T05:53:02.377Z,69.80
2018-05-08T05:55:30.030Z,70.10
2018-05-08T05:57:57.681Z,70.30
2018-05-08T06:00:26.103Z,69.80
2018-05-08T06:02:53.784Z,69.80
2018-05-08T06:05:21.435Z,69.20
2018-05-08T06:07:49.087Z,67.20
2018-05-08T06:10:16.726Z,67.50
2018-05-08T06:12:44.369Z,66.80
2018-05-08T06:15:12.783Z,65.30
2018-05-08T06:17:40.414Z,65.30
2018-05-08T06:20:08.830Z,61.90
2018-05-08T06:22:36.434Z,61.90
2018-05-08T06:25:04.811Z,62.20
2018-05-08T06:27:32.462Z,62.10
2018-05-08T06:30:00.062Z,61.10
2018-05-08T06:32:27.710Z,60.90
2018-05-08T06:34:56.086Z,60.70
2018-05-08T06:37:24.509Z,60.20
2018-05-08T06:39:52.145Z,60.00
2018-05-08T06:42:19.790Z,58.90
2018-05-08T06:44:48.163Z,59.30
2018-05-08T06:47:16.596Z,58.70
2018-05-08T06:49:44.251Z,58.60
2018-05-08T06:52:11.868Z,58.90
2018-05-08T06:54:40.238Z,55.80
2018-05-08T06:57:08.676Z,55.40
2018-05-08T06:59:36.294Z,55.40
2018-05-08T07:02:03.938Z,55.10
2018-05-08T07:04:31.570Z,54.90
2018-05-08T07:06:59.216Z,54.00
2018-05-08T07:09:26.857Z,53.10
2018-05-08T07:11:54.495Z,52.70
2018-05-08T07:14:22.096Z,53.80
2018-05-08T07:16:49.752Z,53.70
2018-05-08T07:19:18.169Z,53.80
2018-05-08T07:21:45.779Z,54.50
2018-05-08T07:24:13.422Z,54.50
2018-05-08T07:26:41.794Z,53.10
2018-05-08T07:29:10.235Z,51.80
2018-05-08T07:31:37.880Z,51.80
2018-05-08T07:34:05.486Z,51.50
2018-05-08T07:36:33.931Z,50.00
2018-05-08T07:39:01.577Z,50.00
2018-05-08T07:41:29.192Z,50.10
2018-05-08T07:43:57.586Z,49.80
2018-05-08T07:46:25.991Z,49.60
2018-05-08T07:48:53.625Z,49.60
2018-05-08T07:51:22.062Z,48.50
2018-05-08T07:53:49.755Z,48.50
2018-05-08T07:56:18.194Z,46.30
2018-05-08T07:58:45.824Z,46.30
2018-05-08T08:01:13.483Z,46.20
2018-05-08T08:03:41.096Z,45.50
2018-05-08T08:06:09.526Z,45.40
2018-05-08T08:08:37.148Z,44.60
2018-05-08T08:11:05.583Z,42.80
2018-05-08T08:13:33.236Z,42.80
2018-05-08T08:16:00.845Z,43.00
2018-05-08T08:18:28.574Z,42.70
2018-05-08T08:20:56.889Z,43.60
2018-05-08T08:23:24.539Z,43.40
2018-05-08T08:25:52.184Z,41.60
2018-05-08T08:28:19.832Z,43.10
2018-05-08T08:30:47.444Z,43.20
2018-05-08T08:33:15.853Z,40.60
2018-05-08T08:35:43.472Z,40.60
2018-05-08T08:38:11.114Z,40.60
2018-05-08T08:40:38.759Z,40.60
2018-05-08T08:43:06.346Z,41.20
2018-05-08T08:45:33.985Z,39.60
2018-05-08T08:48:01.682Z,39.70
2018-05-08T08:50:29.298Z,39.40
2018-05-08T08:52:56.993Z,40.70
2018-05-08T08:55:24.600Z,39.50
2018-05-08T08:57:52.229Z,41.50
2018-05-08T09:00:19.853Z,39.50
2018-05-08T09:02:47.447Z,39.40
2018-05-08T09:05:15.091Z,40.40
2018-05-08T09:07:42.712Z,39.40
2018-05-08T09:10:10.342Z,38.00
2018-05-08T09:12:38.775Z,38.40
2018-05-08T09:15:06.521Z,38.40
2018-05-08T09:17:34.137Z,38.70
2018-05-08T09:20:01.733Z,40.20
2018-05-08T09:22:29.369Z,40.40
2018-05-08T09:24:57.733Z,41.70
2018-05-08T09:27:25.450Z,41.60
2018-05-08T09:29:52.989Z,39.20
2018-05-08T09:32:20.618Z,38.90
2018-05-08T09:34:48.217Z,38.40
2018-05-08T09:37:15.848Z,38.70
2018-05-08T09:39:44.273Z,37.70
2018-05-08T09:42:11.861Z,37.70
2018-05-08T09:44:39.497Z,38.00
2018-05-08T09:47:07.088Z,38.60
2018-05-08T09:49:34.724Z,39.20
2018-05-08T09:52:02.313Z,37.80
2018-05-08T09:54:30.769Z,38.20
2018-05-08T09:56:58.361Z,38.00
2018-05-08T09:59:25.993Z,37.50
2018-05-08T10:01:53.627Z,37.40
2018-05-08T10:04:21.249Z,37.40
2018-05-08T10:06:48.934Z,36.00
2018-05-08T10:09:16.505Z,35.60
2018-05-08T10:11:44.129Z,34.40
2018-05-08T10:14:11.716Z,34.50
2018-05-08T10:16:40.141Z,34.40
2018-05-08T10:19:07.767Z,34.40
2018-05-08T10:21:35.441Z,33.90
2018-05-08T10:24:03.056Z,34.00
2018-05-08T10:26:30.710Z,35.00
2018-05-08T10:28:58.353Z,36.60
2018-05-08T10:31:25.966Z,35.40
2018-05-08T10:33:53.629Z,33.50
2018-05-08T10:36:21.993Z,34.70
2018-05-08T10:38:50.406Z,36.30
2018-05-08T10:41:18.012Z,36.30
2018-05-08T10:43:45.656Z,36.00
2018-05-08T10:46:13.307Z,35.80
2018-05-08T10:48:40.902Z,35.60
2018-05-08T10:51:08.547Z,34.30
2018-05-08T10:53:36.159Z,36.00
2018-05-08T10:56:03.799Z,34.40
2018-05-08T10:58:32.271Z,36.10
2018-05-08T11:01:00.682Z,35.60
2018-05-08T11:03:28.334Z,35.50
2018-05-08T11:05:55.969Z,33.40
2018-05-08T11:08:23.614Z,32.40
2018-05-08T11:10:51.214Z,32.50
2018-05-08T11:13:19.626Z,32.90
2018-05-08T11:15:47.226Z,32.80
2018-05-08T11:18:14.868Z,32.60
2018-05-08T11:20:42.517Z,33.10
2018-05-08T11:23:10.166Z,30.50
2018-05-08T11:25:38.550Z,31.30
2018-05-08T11:28:06.211Z,31.30
2018-05-08T11:30:34.589Z,33.30
2018-05-08T11:33:02.295Z,33.30
2018-05-08T11:35:29.942Z,33.60
2018-05-08T11:37:57.550Z,32.70
2018-05-08T11:40:25.193Z,31.80
2018-05-08T11:42:53.569Z,33.50
2018-05-08T11:45:21.973Z,33.00
2018-05-08T11:47:49.587Z,33.00
2018-05-08T11:50:17.234Z,33.30
2018-05-08T11:52:44.880Z,32.50
2018-05-08T11:55:13.289Z,33.50
2018-05-08T11:57:40.903Z,33.60
2018-05-08T12:00:08.560Z,33.20
2018-05-08T12:02:36.305Z,33.50
2018-05-08T12:05:03.959Z,33.90
2018-05-08T12:07:31.644Z,33.70
2018-05-08T12:09:59.309Z,33.40
2018-05-08T12:12:27.031Z,33.30
2018-05-08T12:14:57.766Z,35.00
2018-05-08T12:17:25.552Z,35.10
2018-05-08T12:19:53.316Z,35.50
2018-05-08T12:22:21.724Z,34.50
2018-05-08T12:24:49.663Z,34.50
2018-05-08T12:27:17.333Z,35.00
2018-05-08T12:29:45.079Z,35.60
2018-05-08T12:32:12.747Z,36.10
2018-05-08T12:34:41.237Z,35.90
2018-05-08T12:37:08.938Z,35.80
2018-05-08T12:39:36.612Z,35.90
2018-05-08T12:42:04.402Z,36.20
2018-05-08T12:44:32.083Z,35.70
2018-05-08T12:46:59.801Z,35.90
2018-05-08T12:49:27.482Z,36.00
2018-05-08T12:51:55.131Z,36.10
2018-05-08T12:54:22.816Z,36.20
2018-05-08T12:56:51.314Z,36.90
2018-05-08T12:59:19.717Z,36.20
2018-05-08T13:01:47.429Z,36.20
2018-05-08T13:04:15.903Z,36.60
2018-05-08T13:06:43.696Z,37.30
2018-05-08T13:09:12.158Z,36.20
2018-05-08T13:11:39.860Z,36.20
2018-05-08T13:14:07.637Z,36.60
2018-05-08T13:16:35.332Z,36.60
2018-05-08T13:19:03.012Z,37.10
2018-05-08T13:21:31.487Z,36.30
2018-05-08T13:23:59.233Z,36.20
2018-05-08T13:26:26.965Z,36.60
2018-05-08T13:28:54.721Z,38.40
2018-05-08T13:31:22.401Z,40.30
2018-05-08T13:33:50.600Z,38.50
2018-05-08T13:36:18.309Z,37.10
2018-05-08T13:38:45.921Z,37.10
2018-05-08T13:41:13.655Z,36.00
2018-05-08T13:43:41.262Z,35.10
2018-05-08T13:46:08.912Z,33.80
2018-05-08T13:48:36.619Z,34.30
2018-05-08T13:51:07.527Z,35.40
2018-05-08T13:53:35.648Z,35.30
2018-05-08T13:56:04.807Z,33.50
2018-05-08T13:58:33.773Z,33.50
2018-05-08T14:01:02.685Z,33.40
2018-05-08T14:03:30.283Z,34.50
2018-05-08T14:05:57.981Z,34.30
2018-05-08T14:08:25.650Z,34.60
2018-05-08T14:10:53.363Z,35.90
2018-05-08T14:13:21.022Z,36.30
2018-05-08T14:15:48.619Z,36.70
2018-05-08T14:18:16.249Z,37.20
2018-05-08T14:20:43.887Z,37.20
2018-05-08T14:23:12.300Z,38.50
2018-05-08T14:25:39.917Z,38.50
2018-05-08T14:28:08.401Z,39.20
2018-05-08T14:30:36.006Z,39.20
2018-05-08T14:33:03.655Z,39.20
2018-05-08T14:35:31.291Z,40.00
2018-05-08T14:37:59.721Z,39.80
2018-05-08T14:40:27.370Z,39.80
2018-05-08T14:42:55.160Z,40.30
2018-05-08T14:45:22.823Z,41.00
2018-05-08T14:47:50.462Z,40.60
2018-05-08T14:50:18.117Z,40.50
2018-05-08T14:52:45.801Z,39.80
2018-05-08T14:55:14.232Z,39.90
2018-05-08T14:57:42.661Z,39.80
2018-05-08T15:00:10.341Z,39.70
2018-05-08T15:02:37.981Z,40.20
2018-05-08T15:05:05.628Z,41.30
2018-05-08T15:07:33.281Z,41.20
2018-05-08T15:10:00.933Z,41.80
2018-05-08T15:12:28.690Z,42.30
2018-05-08T15:14:56.336Z,43.10
2018-05-08T15:17:24.752Z,45.00
2018-05-08T15:19:52.409Z,45.00
2018-05-08T15:22:20.053Z,45.50
2018-05-08T15:24:48.567Z,46.10
2018-05-08T15:27:16.226Z,46.10
2018-05-08T15:29:43.878Z,47.50
2018-05-08T15:32:11.522Z,46.60
2018-05-08T15:34:39.230Z,46.20
2018-05-08T15:37:07.597Z,45.80
2018-05-08T15:39:35.211Z,45.90
2018-05-08T15:42:03.632Z,45.90
2018-05-08T15:44:31.248Z,45.80
2018-05-08T15:46:59.658Z,45.70
2018-05-08T15:49:27.270Z,45.70
2018-05-08T15:51:54.941Z,45.80
2018-05-08T15:54:22.557Z,46.40
2018-05-08T15:56:50.192Z,46.50
2018-05-08T15:59:17.796Z,46.50
2018-05-08T16:01:45.488Z,45.30
2018-05-08T16:04:13.090Z,46.90
2018-05-08T16:06:40.729Z,46.80
2018-05-08T16:09:09.098Z,46.30
2018-05-08T16:11:37.594Z,44.80
2018-05-08T16:14:05.298Z,44.70
2018-05-08T16:16:32.908Z,44.50
2018-05-08T16:19:01.329Z,47.80
2018-05-08T16:21:28.937Z,47.80
2018-05-08T16:23:57.353Z,47.80
2018-05-08T16:26:24.950Z,47.80
2018-05-08T16:28:52.590Z,47.50
2018-05-08T16:31:20.197Z,48.70
2018-05-08T16:33:47.856Z,48.30
2018-05-08T16:36:15.498Z,48.00
2018-05-08T16:38:43.197Z,49.60
2018-05-08T16:41:11.579Z,51.20
2018-05-08T16:43:39.995Z,53.10
2018-05-08T16:46:07.595Z,53.00
2018-05-08T16:48:35.254Z,54.80
2018-05-08T16:51:03.686Z,54.30
2018-05-08T16:53:31.302Z,55.30
2018-05-08T16:55:58.946Z,56.10
2018-05-08T16:58:26.566Z,56.90
2018-05-08T17:00:55.032Z,58.90
2018-05-08T17:03:22.684Z,58.90
2018-05-08T17:05:51.054Z,58.40
2018-05-08T17:08:19.473Z,59.50
2018-05-08T17:10:47.151Z,59.40
2018-05-08T17:13:14.802Z,60.90
2018-05-08T17:15:42.502Z,61.70
2018-05-08T17:18:10.908Z,63.50
2018-05-08T17:20:38.526Z,63.50
2018-05-08T17:23:06.218Z,64.10
2018-05-08T17:25:34.697Z,64.40
2018-05-08T17:28:02.746Z,64.40
2018-05-08T17:30:31.273Z,64.90
2018-05-08T17:32:58.929Z,64.90
2018-05-08T17:35:27.865Z,65.20
2018-05-08T17:37:56.618Z,65.20
2018-05-08T17:40:24.556Z,64.80
2018-05-08T17:42:53.164Z,63.70
2018-05-08T17:45:20.967Z,63.50
2018-05-08T17:47:48.670Z,63.90
2018-05-08T17:50:16.341Z,63.80
2018-05-08T17:52:44.825Z,63.40
2018-05-08T17:55:13.363Z,64.00
2018-05-08T17:57:41.074Z,64.00
2018-05-08T18:00:08.757Z,65.00
2018-05-08T18:02:36.498Z,65.50
2018-05-08T18:05:07.102Z,65.80
2018-05-08T18:07:34.775Z,65.80
2018-05-08T18:10:02.949Z,65.80
2018-05-08T18:12:30.694Z,65.20
2018-05-08T18:14:58.350Z,65.40
2018-05-08T18:17:26.021Z,66.10
2018-05-08T18:19:53.593Z,65.60
2018-05-08T18:22:21.230Z,65.30
2018-05-08T18:24:49.191Z,64.90
2018-05-08T18:27:17.031Z,65.20
2018-05-08T18:29:44.732Z,65.50
2018-05-08T18:32:12.418Z,65.70
2018-05-08T18:34:40.830Z,66.70
2018-05-08T18:37:08.742Z,66.60
2018-05-08T18:39:36.577Z,67.30
2018-05-08T18:42:04.503Z,67.80
2018-05-08T18:44:32.926Z,69.00
2018-05-08T18:47:01.227Z,68.80
2018-05-08T18:49:29.090Z,69.30
2018-05-08T18:51:56.683Z,69.50
2018-05-08T18:54:25.394Z,70.70
2018-05-08T18:56:53.126Z,70.70
2018-05-08T18:59:20.958Z,71.50
2018-05-08T19:01:49.178Z,71.80
2018-05-08T19:04:17.822Z,71.90
2018-05-08T19:06:45.525Z,71.90
2018-05-08T19:09:13.189Z,72.10
2018-05-08T19:11:42.832Z,72.80
2018-05-08T19:14:11.626Z,72.70
2018-05-08T19:16:39.289Z,73.20
2018-05-08T19:19:12.676Z,73.30
2018-05-08T19:21:40.607Z,73.40
2018-05-08T19:27:08.156Z,73.10
2018-05-08T19:29:42.316Z,73.10
2018-05-08T19:32:13.045Z,73.00
2018-05-08T19:34:46.319Z,73.00
2018-05-08T19:37:21.502Z,72.80
2018-05-08T19:39:49.334Z,72.70
2018-05-08T19:42:17.036Z,72.50
2018-05-08T19:44:45.430Z,72.00
2018-05-08T19:47:13.415Z,72.00
2018-05-08T19:49:41.059Z,71.90
2018-05-08T19:52:08.687Z,71.50
2018-05-08T19:54:36.334Z,71.10
2018-05-08T19:57:04.090Z,71.10
2018-05-08T19:59:32.549Z,71.50
2018-05-08T20:02:00.278Z,71.50
2018-05-08T20:04:27.925Z,70.80
2018-05-08T20:06:55.690Z,70.80
2018-05-08T20:09:24.235Z,71.90
2018-05-08T20:11:51.921Z,71.50
2018-05-08T20:14:19.575Z,70.40
2018-05-08T20:16:47.200Z,70.50
2018-05-08T20:19:15.783Z,70.10
2018-05-08T20:21:43.465Z,70.10
2018-05-08T20:24:11.073Z,70.30
2018-05-08T20:26:39.397Z,71.00
2018-05-08T20:29:07.099Z,71.40
2018-05-08T20:31:36.569Z,71.30
2018-05-08T20:34:04.217Z,71.20
2018-05-08T20:36:31.840Z,71.10
2018-05-08T20:38:59.442Z,71.50
2018-05-08T20:41:27.090Z,71.40
2018-05-08T20:43:54.750Z,71.40
2018-05-08T20:46:22.353Z,71.60
2018-05-08T20:48:50.717Z,71.80
2018-05-08T20:51:18.378Z,71.80
2018-05-08T20:53:46.757Z,72.30
2018-05-08T20:56:14.409Z,72.30
2018-05-08T20:58:42.070Z,72.00
2018-05-08T21:01:09.776Z,72.00
2018-05-08T21:03:38.154Z,71.60
2018-05-08T21:06:05.819Z,71.40
2018-05-08T21:08:33.539Z,71.40
2018-05-08T21:11:01.194Z,71.20
2018-05-08T21:13:28.800Z,71.30
2018-05-08T21:15:56.441Z,71.00
2018-05-08T21:18:24.853Z,70.70
2018-05-08T21:20:52.517Z,70.70
2018-05-08T21:23:20.137Z,70.60
2018-05-08T21:25:48.563Z,71.20
2018-05-08T21:28:21.760Z,71.20
2018-05-08T21:30:55.147Z,71.60
2018-05-08T21:33:22.689Z,71.30
2018-05-08T21:35:50.353Z,71.40
2018-05-08T21:38:17.986Z,71.10
2018-05-08T21:40:46.345Z,70.80
2018-05-08T21:43:13.989Z,70.90
2018-05-08T21:45:41.595Z,70.50
2018-05-08T21:48:09.997Z,70.60
2018-05-08T21:50:37.655Z,70.60
2018-05-08T21:53:05.298Z,71.20
2018-05-08T21:55:33.669Z,71.80
2018-05-08T21:58:02.131Z,71.90
2018-05-08T22:00:29.783Z,71.80
2018-05-08T22:02:57.399Z,71.80
2018-05-08T22:05:25.046Z,72.00
2018-05-08T22:07:53.427Z,72.60
2018-05-08T22:10:21.131Z,72.50
2018-05-08T22:12:48.779Z,72.70
2018-05-08T22:15:17.142Z,73.10
2018-05-08T22:17:44.793Z,73.10
2018-05-08T22:20:12.404Z,73.50
2018-05-08T22:22:40.049Z,73.80
2018-05-08T22:25:07.681Z,74.10
2018-05-08T22:27:35.278Z,74.40
2018-05-08T22:30:02.908Z,74.50
2018-05-08T22:32:30.505Z,74.60
2018-05-08T22:34:58.149Z,74.70
2018-05-08T22:37:25.739Z,74.50
2018-05-08T22:39:53.390Z,74.30
2018-05-08T22:42:21.924Z,74.50
2018-05-08T22:44:49.549Z,74.70
2018-05-08T22:47:17.189Z,75.10
2018-05-08T22:49:44.790Z,75.40
2018-05-08T22:52:13.201Z,75.50
2018-05-08T22:54:40.834Z,75.50
2018-05-08T22:57:09.234Z,75.90
2018-05-08T22:59:36.842Z,75.90
2018-05-08T23:02:04.558Z,75.70
2018-05-08T23:04:32.409Z,75.70
2018-05-08T23:07:01.319Z,75.70
2018-05-08T23:09:29.034Z,75.90
2018-05-08T23:11:57.682Z,76.00
2018-05-08T23:14:25.323Z,76.00
2018-05-08T23:16:52.978Z,76.10
2018-05-08T23:19:20.617Z,76.50
2018-05-08T23:21:48.982Z,76.90
2018-05-08T23:24:16.617Z,76.80
2018-05-08T23:26:44.207Z,77.00
2018-05-08T23:29:11.834Z,77.10
2018-05-08T23:31:39.473Z,76.90
2018-05-08T23:34:07.061Z,76.80
2018-05-08T23:36:35.465Z,76.50
2018-05-08T23:39:03.118Z,76.40
2018-05-08T23:41:30.757Z,75.90
2018-05-08T23:43:59.148Z,75.80
2018-05-08T23:46:26.788Z,75.70
2018-05-08T23:48:54.379Z,76.00
2018-05-08T23:51:23.521Z,76.60
2018-05-08T23:53:51.114Z,76.60
2018-05-08T23:56:18.757Z,76.10
2018-05-08T23:58:46.402Z,76.30
